sensor_id;sensor_type;location;lat;lon;timestamp;temperature;humidity
44513;DHT22;30219;50.588;9.504;2023-05-16T00:00:58;10.10;99.90
44513;DHT22;30219;50.588;9.504;2023-05-16T00:03:23;10.20;99.90
44513;DHT22;30219;50.588;9.504;2023-05-16T00:05:48;10.10;99.90
44513;DHT22;30219;50.588;9.504;2023-05-16T00:08:15;10.10;99.90
44513;DHT22;30219;50.588;9.504;2023-05-16T00:10:40;10.10;99.90
44513;DHT22;30219;50.588;9.504;2023-05-16T00:13:06;10.10;99.90
44513;DHT22;30219;50.588;9.504;2023-05-16T00:15:31;10.10;99.90
44513;DHT22;30219;50.588;9.504;2023-05-16T00:17:57;10.20;99.90
44513;DHT22;30219;50.588;9.504;2023-05-16T00:20:27;10.20;99.90
44513;DHT22;30219;50.588;9.504;2023-05-16T00:22:52;10.10;99.90
44513;DHT22;30219;50.588;9.504;2023-05-16T00:25:18;10.00;99.90
44513;DHT22;30219;50.588;9.504;2023-05-16T00:27:43;10.10;99.90
44513;DHT22;30219;50.588;9.504;2023-05-16T00:30:09;10.10;99.90
44513;DHT22;30219;50.588;9.504;2023-05-16T00:32:35;10.10;99.90
44513;DHT22;30219;50.588;9.504;2023-05-16T00:35:01;10.10;99.90
44513;DHT22;30219;50.588;9.504;2023-05-16T00:37:26;10.10;99.90
44513;DHT22;30219;50.588;9.504;2023-05-16T00:39:51;10.00;99.90
44513;DHT22;30219;50.588;9.504;2023-05-16T00:42:20;9.80;99.90
44513;DHT22;30219;50.588;9.504;2023-05-16T00:44:46;9.80;99.90
44513;DHT22;30219;50.588;9.504;2023-05-16T00:47:12;9.60;99.90
44513;DHT22;30219;50.588;9.504;2023-05-16T00:49:37;9.60;99.90
44513;DHT22;30219;50.588;9.504;2023-05-16T00:52:03;9.60;99.90
44513;DHT22;30219;50.588;9.504;2023-05-16T00:54:29;9.60;99.90
44513;DHT22;30219;50.588;9.504;2023-05-16T00:56:54;9.40;99.90
44513;DHT22;30219;50.588;9.504;2023-05-16T00:59:21;9.20;99.90
44513;DHT22;30219;50.588;9.504;2023-05-16T01:01:46;9.10;99.90
44513;DHT22;30219;50.588;9.504;2023-05-16T01:04:12;9.10;99.90
44513;DHT22;30219;50.588;9.504;2023-05-16T01:06:38;9.10;99.90
44513;DHT22;30219;50.588;9.504;2023-05-16T01:09:03;9.00;99.90
44513;DHT22;30219;50.588;9.504;2023-05-16T01:11:33;9.00;99.90
44513;DHT22;30219;50.588;9.504;2023-05-16T01:22:15;8.80;99.90
44513;DHT22;30219;50.588;9.504;2023-05-16T01:27:25;8.80;99.90
44513;DHT22;30219;50.588;9.504;2023-05-16T01:29:55;8.80;99.90
44513;DHT22;30219;50.588;9.504;2023-05-16T01:32:21;8.80;99.90
44513;DHT22;30219;50.588;9.504;2023-05-16T01:34:47;8.70;99.90
44513;DHT22;30219;50.588;9.504;2023-05-16T01:37:17;8.70;99.90
44513;DHT22;30219;50.588;9.504;2023-05-16T01:39:44;8.70;99.90
44513;DHT22;30219;50.588;9.504;2023-05-16T01:42:15;8.70;99.90
44513;DHT22;30219;50.588;9.504;2023-05-16T01:45:02;8.60;99.90
44513;DHT22;30219;50.588;9.504;2023-05-16T01:47:31;8.50;99.90
44513;DHT22;30219;50.588;9.504;2023-05-16T01:50:13;8.50;99.90
44513;DHT22;30219;50.588;9.504;2023-05-16T01:55:22;8.50;99.90
44513;DHT22;30219;50.588;9.504;2023-05-16T01:57:48;8.50;99.90
44513;DHT22;30219;50.588;9.504;2023-05-16T02:00:14;8.60;99.90
44513;DHT22;30219;50.588;9.504;2023-05-16T02:02:40;8.60;99.90
44513;DHT22;30219;50.588;9.504;2023-05-16T02:05:05;8.70;99.90
44513;DHT22;30219;50.588;9.504;2023-05-16T02:07:31;8.70;99.90
44513;DHT22;30219;50.588;9.504;2023-05-16T02:09:57;8.80;99.90
44513;DHT22;30219;50.588;9.504;2023-05-16T02:12:23;8.80;99.90
44513;DHT22;30219;50.588;9.504;2023-05-16T02:14:48;8.80;99.90
44513;DHT22;30219;50.588;9.504;2023-05-16T02:17:14;8.70;99.90
44513;DHT22;30219;50.588;9.504;2023-05-16T02:19:39;8.60;99.90
44513;DHT22;30219;50.588;9.504;2023-05-16T02:22:05;8.40;99.90
44513;DHT22;30219;50.588;9.504;2023-05-16T02:24:30;8.40;99.90
44513;DHT22;30219;50.588;9.504;2023-05-16T02:26:56;8.30;99.90
44513;DHT22;30219;50.588;9.504;2023-05-16T02:29:21;8.20;99.90
44513;DHT22;30219;50.588;9.504;2023-05-16T02:31:47;8.20;99.90
44513;DHT22;30219;50.588;9.504;2023-05-16T02:34:12;8.30;99.90
44513;DHT22;30219;50.588;9.504;2023-05-16T02:36:38;8.30;99.90
44513;DHT22;30219;50.588;9.504;2023-05-16T02:39:03;8.40;99.90
44513;DHT22;30219;50.588;9.504;2023-05-16T02:41:29;8.30;99.90
44513;DHT22;30219;50.588;9.504;2023-05-16T02:43:54;8.30;99.90
44513;DHT22;30219;50.588;9.504;2023-05-16T02:46:20;8.20;99.90
44513;DHT22;30219;50.588;9.504;2023-05-16T02:48:46;8.30;99.90
44513;DHT22;30219;50.588;9.504;2023-05-16T02:51:11;8.30;99.90
44513;DHT22;30219;50.588;9.504;2023-05-16T02:53:37;8.30;99.90
44513;DHT22;30219;50.588;9.504;2023-05-16T02:56:02;8.20;99.90
44513;DHT22;30219;50.588;9.504;2023-05-16T02:58:31;8.00;99.90
44513;DHT22;30219;50.588;9.504;2023-05-16T03:00:56;7.90;99.90
44513;DHT22;30219;50.588;9.504;2023-05-16T03:03:22;7.90;99.90
44513;DHT22;30219;50.588;9.504;2023-05-16T03:05:47;7.90;99.90
44513;DHT22;30219;50.588;9.504;2023-05-16T03:08:13;7.90;99.90
44513;DHT22;30219;50.588;9.504;2023-05-16T03:10:39;7.90;99.90
44513;DHT22;30219;50.588;9.504;2023-05-16T03:13:04;7.90;99.90
44513;DHT22;30219;50.588;9.504;2023-05-16T03:15:30;7.90;99.90
44513;DHT22;30219;50.588;9.504;2023-05-16T03:17:55;7.80;99.90
44513;DHT22;30219;50.588;9.504;2023-05-16T03:20:21;7.70;99.90
44513;DHT22;30219;50.588;9.504;2023-05-16T03:22:47;7.70;99.90
44513;DHT22;30219;50.588;9.504;2023-05-16T03:25:12;7.70;99.90
44513;DHT22;30219;50.588;9.504;2023-05-16T03:27:37;7.70;99.90
44513;DHT22;30219;50.588;9.504;2023-05-16T03:30:03;7.70;99.90
44513;DHT22;30219;50.588;9.504;2023-05-16T03:32:29;7.60;99.90
44513;DHT22;30219;50.588;9.504;2023-05-16T03:34:54;7.60;99.90
44513;DHT22;30219;50.588;9.504;2023-05-16T03:37:20;7.70;99.90
44513;DHT22;30219;50.588;9.504;2023-05-16T03:39:45;7.70;99.90
44513;DHT22;30219;50.588;9.504;2023-05-16T03:42:11;7.70;99.90
44513;DHT22;30219;50.588;9.504;2023-05-16T03:44:36;7.70;99.90
44513;DHT22;30219;50.588;9.504;2023-05-16T03:47:02;7.70;99.90
44513;DHT22;30219;50.588;9.504;2023-05-16T03:49:27;7.70;99.90
44513;DHT22;30219;50.588;9.504;2023-05-16T03:51:53;7.70;99.90
44513;DHT22;30219;50.588;9.504;2023-05-16T03:54:18;7.80;99.90
44513;DHT22;30219;50.588;9.504;2023-05-16T03:56:44;7.90;99.90
44513;DHT22;30219;50.588;9.504;2023-05-16T03:59:09;7.90;99.90
44513;DHT22;30219;50.588;9.504;2023-05-16T04:01:35;8.00;99.90
44513;DHT22;30219;50.588;9.504;2023-05-16T04:04:00;7.90;99.90
44513;DHT22;30219;50.588;9.504;2023-05-16T04:06:25;8.10;99.90
44513;DHT22;30219;50.588;9.504;2023-05-16T04:08:51;8.10;99.90
44513;DHT22;30219;50.588;9.504;2023-05-16T04:11:16;8.20;99.90
44513;DHT22;30219;50.588;9.504;2023-05-16T04:13:42;8.30;99.90
44513;DHT22;30219;50.588;9.504;2023-05-16T04:16:07;8.30;99.90
44513;DHT22;30219;50.588;9.504;2023-05-16T04:18:33;8.40;99.90
44513;DHT22;30219;50.588;9.504;2023-05-16T04:20:58;8.40;99.90
44513;DHT22;30219;50.588;9.504;2023-05-16T04:23:24;8.50;99.90
44513;DHT22;30219;50.588;9.504;2023-05-16T04:25:49;8.60;99.90
44513;DHT22;30219;50.588;9.504;2023-05-16T04:28:15;8.70;99.90
44513;DHT22;30219;50.588;9.504;2023-05-16T04:30:40;8.70;99.90
44513;DHT22;30219;50.588;9.504;2023-05-16T04:33:06;8.80;99.90
44513;DHT22;30219;50.588;9.504;2023-05-16T04:35:31;8.80;99.90
44513;DHT22;30219;50.588;9.504;2023-05-16T04:37:58;8.80;99.90
44513;DHT22;30219;50.588;9.504;2023-05-16T04:40:23;8.90;99.90
44513;DHT22;30219;50.588;9.504;2023-05-16T04:42:49;9.00;99.90
44513;DHT22;30219;50.588;9.504;2023-05-16T04:45:15;9.00;99.90
44513;DHT22;30219;50.588;9.504;2023-05-16T04:47:41;9.00;99.90
44513;DHT22;30219;50.588;9.504;2023-05-16T04:50:06;9.00;99.90
44513;DHT22;30219;50.588;9.504;2023-05-16T04:52:33;9.00;99.90
44513;DHT22;30219;50.588;9.504;2023-05-16T04:54:58;9.00;99.90
44513;DHT22;30219;50.588;9.504;2023-05-16T04:57:24;9.00;99.90
44513;DHT22;30219;50.588;9.504;2023-05-16T04:59:50;9.00;99.90
44513;DHT22;30219;50.588;9.504;2023-05-16T05:02:15;9.10;99.90
44513;DHT22;30219;50.588;9.504;2023-05-16T05:04:41;9.00;99.90
44513;DHT22;30219;50.588;9.504;2023-05-16T05:07:07;9.00;99.90
44513;DHT22;30219;50.588;9.504;2023-05-16T05:09:32;9.10;99.90
44513;DHT22;30219;50.588;9.504;2023-05-16T05:11:58;9.00;99.90
44513;DHT22;30219;50.588;9.504;2023-05-16T05:14:23;9.00;99.90
44513;DHT22;30219;50.588;9.504;2023-05-16T05:16:48;9.00;99.90
44513;DHT22;30219;50.588;9.504;2023-05-16T05:19:14;9.10;99.90
44513;DHT22;30219;50.588;9.504;2023-05-16T05:21:40;9.10;99.90
44513;DHT22;30219;50.588;9.504;2023-05-16T05:24:05;9.10;99.90
44513;DHT22;30219;50.588;9.504;2023-05-16T05:26:31;9.20;99.90
44513;DHT22;30219;50.588;9.504;2023-05-16T05:28:56;9.20;99.90
44513;DHT22;30219;50.588;9.504;2023-05-16T05:31:21;9.20;99.90
44513;DHT22;30219;50.588;9.504;2023-05-16T05:33:47;9.30;99.90
44513;DHT22;30219;50.588;9.504;2023-05-16T05:36:13;9.20;99.90
44513;DHT22;30219;50.588;9.504;2023-05-16T05:38:38;9.30;99.90
44513;DHT22;30219;50.588;9.504;2023-05-16T05:41:04;9.30;99.90
44513;DHT22;30219;50.588;9.504;2023-05-16T05:43:30;9.20;99.90
44513;DHT22;30219;50.588;9.504;2023-05-16T05:45:56;9.20;99.90
44513;DHT22;30219;50.588;9.504;2023-05-16T05:48:21;9.20;99.90
44513;DHT22;30219;50.588;9.504;2023-05-16T05:50:47;9.30;99.90
44513;DHT22;30219;50.588;9.504;2023-05-16T05:53:12;9.30;99.90
44513;DHT22;30219;50.588;9.504;2023-05-16T05:55:38;9.20;99.90
44513;DHT22;30219;50.588;9.504;2023-05-16T05:58:05;9.20;99.90
44513;DHT22;30219;50.588;9.504;2023-05-16T06:00:31;9.20;99.90
44513;DHT22;30219;50.588;9.504;2023-05-16T06:02:56;9.20;99.90
44513;DHT22;30219;50.588;9.504;2023-05-16T06:05:22;9.30;99.90
44513;DHT22;30219;50.588;9.504;2023-05-16T06:07:48;9.40;99.90
44513;DHT22;30219;50.588;9.504;2023-05-16T06:10:13;9.50;99.90
44513;DHT22;30219;50.588;9.504;2023-05-16T06:12:39;9.60;99.90
44513;DHT22;30219;50.588;9.504;2023-05-16T06:15:04;9.70;99.90
44513;DHT22;30219;50.588;9.504;2023-05-16T06:17:30;9.80;99.90
44513;DHT22;30219;50.588;9.504;2023-05-16T06:19:55;9.80;99.90
44513;DHT22;30219;50.588;9.504;2023-05-16T06:22:21;9.80;99.90
44513;DHT22;30219;50.588;9.504;2023-05-16T06:24:46;9.90;99.90
44513;DHT22;30219;50.588;9.504;2023-05-16T06:27:12;9.90;99.90
44513;DHT22;30219;50.588;9.504;2023-05-16T06:29:37;10.00;99.90
44513;DHT22;30219;50.588;9.504;2023-05-16T06:32:03;10.00;99.90
44513;DHT22;30219;50.588;9.504;2023-05-16T06:34:29;10.00;99.90
44513;DHT22;30219;50.588;9.504;2023-05-16T06:36:55;10.10;99.90
44513;DHT22;30219;50.588;9.504;2023-05-16T06:39:21;10.20;99.90
44513;DHT22;30219;50.588;9.504;2023-05-16T06:41:46;10.20;99.90
44513;DHT22;30219;50.588;9.504;2023-05-16T06:44:11;10.30;99.90
44513;DHT22;30219;50.588;9.504;2023-05-16T06:46:37;10.30;99.90
44513;DHT22;30219;50.588;9.504;2023-05-16T06:49:02;10.40;99.90
44513;DHT22;30219;50.588;9.504;2023-05-16T06:51:28;10.50;99.90
44513;DHT22;30219;50.588;9.504;2023-05-16T06:53:54;10.60;99.90
44513;DHT22;30219;50.588;9.504;2023-05-16T06:56:19;10.60;99.90
44513;DHT22;30219;50.588;9.504;2023-05-16T06:58:45;10.60;99.90
44513;DHT22;30219;50.588;9.504;2023-05-16T07:01:11;10.70;99.90
44513;DHT22;30219;50.588;9.504;2023-05-16T07:03:36;10.70;99.90
44513;DHT22;30219;50.588;9.504;2023-05-16T07:06:02;10.80;99.90
44513;DHT22;30219;50.588;9.504;2023-05-16T07:08:27;10.80;99.90
44513;DHT22;30219;50.588;9.504;2023-05-16T07:10:53;10.80;99.90
44513;DHT22;30219;50.588;9.504;2023-05-16T07:13:18;10.80;99.90
44513;DHT22;30219;50.588;9.504;2023-05-16T07:15:44;10.80;99.90
44513;DHT22;30219;50.588;9.504;2023-05-16T07:18:09;10.80;99.90
44513;DHT22;30219;50.588;9.504;2023-05-16T07:20:35;10.90;99.90
44513;DHT22;30219;50.588;9.504;2023-05-16T07:23:01;10.90;99.90
44513;DHT22;30219;50.588;9.504;2023-05-16T07:25:26;11.00;99.90
44513;DHT22;30219;50.588;9.504;2023-05-16T07:27:52;11.00;99.90
44513;DHT22;30219;50.588;9.504;2023-05-16T07:30:17;11.00;99.90
44513;DHT22;30219;50.588;9.504;2023-05-16T07:32:43;11.00;99.90
44513;DHT22;30219;50.588;9.504;2023-05-16T07:35:08;10.90;99.90
44513;DHT22;30219;50.588;9.504;2023-05-16T07:37:34;10.80;99.90
44513;DHT22;30219;50.588;9.504;2023-05-16T07:40:00;10.60;99.90
44513;DHT22;30219;50.588;9.504;2023-05-16T07:42:25;10.50;99.90
44513;DHT22;30219;50.588;9.504;2023-05-16T07:44:51;10.40;99.90
44513;DHT22;30219;50.588;9.504;2023-05-16T07:47:17;10.40;99.90
44513;DHT22;30219;50.588;9.504;2023-05-16T07:49:42;10.30;99.90
44513;DHT22;30219;50.588;9.504;2023-05-16T07:52:08;10.30;99.90
44513;DHT22;30219;50.588;9.504;2023-05-16T07:54:33;10.10;99.90
44513;DHT22;30219;50.588;9.504;2023-05-16T07:56:59;10.10;99.90
44513;DHT22;30219;50.588;9.504;2023-05-16T07:59:24;10.10;99.90
44513;DHT22;30219;50.588;9.504;2023-05-16T08:01:50;10.10;99.90
44513;DHT22;30219;50.588;9.504;2023-05-16T08:04:15;10.10;99.90
44513;DHT22;30219;50.588;9.504;2023-05-16T08:06:41;10.00;99.90
44513;DHT22;30219;50.588;9.504;2023-05-16T08:09:06;10.00;99.90
44513;DHT22;30219;50.588;9.504;2023-05-16T08:11:33;10.00;99.90
44513;DHT22;30219;50.588;9.504;2023-05-16T08:13:59;10.10;99.90
44513;DHT22;30219;50.588;9.504;2023-05-16T08:16:24;10.20;99.90
44513;DHT22;30219;50.588;9.504;2023-05-16T08:18:50;10.10;99.90
44513;DHT22;30219;50.588;9.504;2023-05-16T08:21:15;10.10;99.90
44513;DHT22;30219;50.588;9.504;2023-05-16T08:23:41;10.10;99.90
44513;DHT22;30219;50.588;9.504;2023-05-16T08:26:07;10.20;99.90
44513;DHT22;30219;50.588;9.504;2023-05-16T08:28:33;10.20;99.90
44513;DHT22;30219;50.588;9.504;2023-05-16T08:30:58;10.20;99.90
44513;DHT22;30219;50.588;9.504;2023-05-16T08:33:24;10.20;99.90
44513;DHT22;30219;50.588;9.504;2023-05-16T08:35:50;10.30;99.90
44513;DHT22;30219;50.588;9.504;2023-05-16T08:38:17;10.40;99.90
44513;DHT22;30219;50.588;9.504;2023-05-16T08:40:42;10.40;99.90
44513;DHT22;30219;50.588;9.504;2023-05-16T08:43:08;10.50;99.90
44513;DHT22;30219;50.588;9.504;2023-05-16T08:45:33;10.50;99.90
44513;DHT22;30219;50.588;9.504;2023-05-16T08:47:59;10.60;99.90
44513;DHT22;30219;50.588;9.504;2023-05-16T08:50:25;10.70;99.90
44513;DHT22;30219;50.588;9.504;2023-05-16T08:52:53;10.80;99.90
44513;DHT22;30219;50.588;9.504;2023-05-16T08:55:19;10.90;99.90
44513;DHT22;30219;50.588;9.504;2023-05-16T08:57:45;11.10;99.90
44513;DHT22;30219;50.588;9.504;2023-05-16T09:00:11;11.20;99.90
44513;DHT22;30219;50.588;9.504;2023-05-16T09:02:38;11.30;99.90
44513;DHT22;30219;50.588;9.504;2023-05-16T09:05:04;11.30;99.90
44513;DHT22;30219;50.588;9.504;2023-05-16T09:07:30;11.30;99.90
44513;DHT22;30219;50.588;9.504;2023-05-16T09:09:55;11.30;99.90
44513;DHT22;30219;50.588;9.504;2023-05-16T09:12:21;11.30;99.90
44513;DHT22;30219;50.588;9.504;2023-05-16T09:14:46;11.30;99.90
44513;DHT22;30219;50.588;9.504;2023-05-16T09:17:12;11.30;99.90
44513;DHT22;30219;50.588;9.504;2023-05-16T09:19:38;11.50;99.90
44513;DHT22;30219;50.588;9.504;2023-05-16T09:22:13;11.60;99.90
44513;DHT22;30219;50.588;9.504;2023-05-16T09:24:42;11.70;99.90
44513;DHT22;30219;50.588;9.504;2023-05-16T09:27:08;11.80;99.90
44513;DHT22;30219;50.588;9.504;2023-05-16T09:29:34;12.00;99.90
44513;DHT22;30219;50.588;9.504;2023-05-16T09:34:53;12.10;99.90
44513;DHT22;30219;50.588;9.504;2023-05-16T09:37:20;12.30;99.90
44513;DHT22;30219;50.588;9.504;2023-05-16T09:42:12;12.70;99.90
44513;DHT22;30219;50.588;9.504;2023-05-16T09:44:38;12.90;99.90
44513;DHT22;30219;50.588;9.504;2023-05-16T09:47:04;13.10;99.90
44513;DHT22;30219;50.588;9.504;2023-05-16T09:49:30;13.20;99.90
44513;DHT22;30219;50.588;9.504;2023-05-16T09:51:55;13.30;99.90
44513;DHT22;30219;50.588;9.504;2023-05-16T09:54:30;13.40;99.90
44513;DHT22;30219;50.588;9.504;2023-05-16T09:56:56;13.50;99.90
44513;DHT22;30219;50.588;9.504;2023-05-16T09:59:21;13.60;99.90
44513;DHT22;30219;50.588;9.504;2023-05-16T10:01:47;13.80;99.90
44513;DHT22;30219;50.588;9.504;2023-05-16T10:04:13;13.90;99.90
44513;DHT22;30219;50.588;9.504;2023-05-16T10:06:40;14.20;99.90
44513;DHT22;30219;50.588;9.504;2023-05-16T10:09:10;14.30;99.90
44513;DHT22;30219;50.588;9.504;2023-05-16T10:11:36;14.10;99.90
44513;DHT22;30219;50.588;9.504;2023-05-16T10:14:02;14.00;99.90
44513;DHT22;30219;50.588;9.504;2023-05-16T10:16:29;13.90;99.90
44513;DHT22;30219;50.588;9.504;2023-05-16T10:18:55;14.10;99.90
44513;DHT22;30219;50.588;9.504;2023-05-16T10:21:21;14.40;99.90
44513;DHT22;30219;50.588;9.504;2023-05-16T10:23:48;14.60;99.90
44513;DHT22;30219;50.588;9.504;2023-05-16T10:26:15;14.80;99.90
44513;DHT22;30219;50.588;9.504;2023-05-16T10:28:40;15.20;99.90
44513;DHT22;30219;50.588;9.504;2023-05-16T10:31:06;15.60;99.90
44513;DHT22;30219;50.588;9.504;2023-05-16T10:33:32;15.80;99.90
44513;DHT22;30219;50.588;9.504;2023-05-16T10:35:58;15.90;99.90
44513;DHT22;30219;50.588;9.504;2023-05-16T10:38:25;15.70;99.90
44513;DHT22;30219;50.588;9.504;2023-05-16T10:40:50;15.70;99.90
44513;DHT22;30219;50.588;9.504;2023-05-16T10:43:26;15.80;99.90
44513;DHT22;30219;50.588;9.504;2023-05-16T10:45:55;15.80;99.80
44513;DHT22;30219;50.588;9.504;2023-05-16T10:48:31;16.00;99.30
44513;DHT22;30219;50.588;9.504;2023-05-16T10:50:56;16.00;98.90
44513;DHT22;30219;50.588;9.504;2023-05-16T10:53:29;16.20;98.70
44513;DHT22;30219;50.588;9.504;2023-05-16T11:06:21;16.90;97.20
44513;DHT22;30219;50.588;9.504;2023-05-16T11:11:44;16.90;96.60
44513;DHT22;30219;50.588;9.504;2023-05-16T11:14:27;17.00;96.20
44513;DHT22;30219;50.588;9.504;2023-05-16T11:17:12;17.00;96.00
44513;DHT22;30219;50.588;9.504;2023-05-16T11:19:44;17.10;95.30
44513;DHT22;30219;50.588;9.504;2023-05-16T11:29:47;17.00;95.40
44513;DHT22;30219;50.588;9.504;2023-05-16T11:32:12;17.20;95.30
44513;DHT22;30219;50.588;9.504;2023-05-16T11:34:38;17.30;95.30
44513;DHT22;30219;50.588;9.504;2023-05-16T11:37:04;17.60;95.40
44513;DHT22;30219;50.588;9.504;2023-05-16T11:39:30;17.80;94.40
44513;DHT22;30219;50.588;9.504;2023-05-16T11:41:56;17.80;93.80
44513;DHT22;30219;50.588;9.504;2023-05-16T11:44:22;17.80;93.90
44513;DHT22;30219;50.588;9.504;2023-05-16T11:46:47;18.00;92.90
44513;DHT22;30219;50.588;9.504;2023-05-16T11:49:13;17.90;93.70
44513;DHT22;30219;50.588;9.504;2023-05-16T11:51:39;17.90;93.00
44513;DHT22;30219;50.588;9.504;2023-05-16T11:54:05;18.00;93.90
44513;DHT22;30219;50.588;9.504;2023-05-16T11:56:31;18.10;93.70
44513;DHT22;30219;50.588;9.504;2023-05-16T11:59:00;18.20;93.80
44513;DHT22;30219;50.588;9.504;2023-05-16T12:01:35;18.10;92.70
44513;DHT22;30219;50.588;9.504;2023-05-16T12:04:06;18.30;92.20
44513;DHT22;30219;50.588;9.504;2023-05-16T12:06:32;18.60;92.50
44513;DHT22;30219;50.588;9.504;2023-05-16T12:08:57;19.00;91.40
44513;DHT22;30219;50.588;9.504;2023-05-16T12:11:23;19.20;91.00
44513;DHT22;30219;50.588;9.504;2023-05-16T12:13:48;19.40;90.90
44513;DHT22;30219;50.588;9.504;2023-05-16T12:16:14;19.50;90.70
44513;DHT22;30219;50.588;9.504;2023-05-16T12:18:40;19.60;90.30
44513;DHT22;30219;50.588;9.504;2023-05-16T12:21:06;19.30;89.90
44513;DHT22;30219;50.588;9.504;2023-05-16T12:23:32;19.00;89.20
44513;DHT22;30219;50.588;9.504;2023-05-16T12:25:58;18.70;90.20
44513;DHT22;30219;50.588;9.504;2023-05-16T12:28:29;18.90;90.00
44513;DHT22;30219;50.588;9.504;2023-05-16T12:30:55;19.00;90.00
44513;DHT22;30219;50.588;9.504;2023-05-16T12:33:21;19.10;88.50
44513;DHT22;30219;50.588;9.504;2023-05-16T12:35:46;19.00;86.20
44513;DHT22;30219;50.588;9.504;2023-05-16T12:38:13;18.70;87.40
44513;DHT22;30219;50.588;9.504;2023-05-16T12:40:40;18.30;89.70
44513;DHT22;30219;50.588;9.504;2023-05-16T12:43:19;18.10;90.70
44513;DHT22;30219;50.588;9.504;2023-05-16T12:45:49;18.30;90.50
44513;DHT22;30219;50.588;9.504;2023-05-16T12:48:15;18.60;88.80
44513;DHT22;30219;50.588;9.504;2023-05-16T12:50:41;18.80;88.10
44513;DHT22;30219;50.588;9.504;2023-05-16T12:53:10;19.00;86.60
44513;DHT22;30219;50.588;9.504;2023-05-16T12:55:37;19.10;86.90
44513;DHT22;30219;50.588;9.504;2023-05-16T12:58:02;19.20;85.20
44513;DHT22;30219;50.588;9.504;2023-05-16T13:00:28;19.30;87.30
44513;DHT22;30219;50.588;9.504;2023-05-16T13:02:53;19.10;87.20
44513;DHT22;30219;50.588;9.504;2023-05-16T13:05:19;18.90;86.30
44513;DHT22;30219;50.588;9.504;2023-05-16T13:07:47;18.80;85.60
44513;DHT22;30219;50.588;9.504;2023-05-16T13:10:16;18.50;84.80
44513;DHT22;30219;50.588;9.504;2023-05-16T13:12:41;18.60;82.20
44513;DHT22;30219;50.588;9.504;2023-05-16T13:15:08;18.10;81.50
44513;DHT22;30219;50.588;9.504;2023-05-16T13:17:34;17.50;83.50
44513;DHT22;30219;50.588;9.504;2023-05-16T13:20:00;17.50;86.80
44513;DHT22;30219;50.588;9.504;2023-05-16T13:22:27;17.90;87.50
44513;DHT22;30219;50.588;9.504;2023-05-16T13:24:52;18.10;87.20
44513;DHT22;30219;50.588;9.504;2023-05-16T13:27:17;18.00;85.80
44513;DHT22;30219;50.588;9.504;2023-05-16T13:29:43;17.70;84.60
44513;DHT22;30219;50.588;9.504;2023-05-16T13:32:09;18.00;84.00
44513;DHT22;30219;50.588;9.504;2023-05-16T13:34:34;18.10;86.70
44513;DHT22;30219;50.588;9.504;2023-05-16T13:37:00;18.30;86.20
44513;DHT22;30219;50.588;9.504;2023-05-16T13:39:25;18.60;86.20
44513;DHT22;30219;50.588;9.504;2023-05-16T13:41:51;18.70;86.20
44513;DHT22;30219;50.588;9.504;2023-05-16T13:44:16;18.90;86.00
44513;DHT22;30219;50.588;9.504;2023-05-16T13:46:42;19.00;85.80
44513;DHT22;30219;50.588;9.504;2023-05-16T13:49:08;19.10;85.50
44513;DHT22;30219;50.588;9.504;2023-05-16T13:51:33;19.20;85.10
44513;DHT22;30219;50.588;9.504;2023-05-16T13:53:59;19.10;83.20
44513;DHT22;30219;50.588;9.504;2023-05-16T13:56:24;19.10;82.00
44513;DHT22;30219;50.588;9.504;2023-05-16T13:58:50;19.10;83.40
44513;DHT22;30219;50.588;9.504;2023-05-16T14:01:16;19.20;83.40
44513;DHT22;30219;50.588;9.504;2023-05-16T14:03:41;19.20;83.20
44513;DHT22;30219;50.588;9.504;2023-05-16T14:06:07;19.30;82.60
44513;DHT22;30219;50.588;9.504;2023-05-16T14:08:33;19.20;80.30
44513;DHT22;30219;50.588;9.504;2023-05-16T14:10:58;19.10;80.50
44513;DHT22;30219;50.588;9.504;2023-05-16T14:13:24;19.10;80.90
44513;DHT22;30219;50.588;9.504;2023-05-16T14:15:49;19.10;81.50
44513;DHT22;30219;50.588;9.504;2023-05-16T14:18:15;19.20;81.20
44513;DHT22;30219;50.588;9.504;2023-05-16T14:20:41;19.20;80.90
44513;DHT22;30219;50.588;9.504;2023-05-16T14:23:07;19.40;81.60
44513;DHT22;30219;50.588;9.504;2023-05-16T14:25:32;19.20;81.30
44513;DHT22;30219;50.588;9.504;2023-05-16T14:27:58;19.00;80.00
44513;DHT22;30219;50.588;9.504;2023-05-16T14:30:23;18.30;80.00
44513;DHT22;30219;50.588;9.504;2023-05-16T14:32:49;18.00;81.30
44513;DHT22;30219;50.588;9.504;2023-05-16T14:35:15;17.70;82.20
44513;DHT22;30219;50.588;9.504;2023-05-16T14:37:40;17.80;81.90
44513;DHT22;30219;50.588;9.504;2023-05-16T14:40:06;17.80;80.40
44513;DHT22;30219;50.588;9.504;2023-05-16T14:42:33;18.00;80.90
44513;DHT22;30219;50.588;9.504;2023-05-16T14:44:58;18.20;82.30
44513;DHT22;30219;50.588;9.504;2023-05-16T14:47:24;18.40;80.40
44513;DHT22;30219;50.588;9.504;2023-05-16T14:49:49;18.40;80.30
44513;DHT22;30219;50.588;9.504;2023-05-16T14:52:17;18.30;81.20
44513;DHT22;30219;50.588;9.504;2023-05-16T14:54:42;18.20;80.70
44513;DHT22;30219;50.588;9.504;2023-05-16T14:57:07;18.30;80.90
44513;DHT22;30219;50.588;9.504;2023-05-16T14:59:33;18.40;81.10
44513;DHT22;30219;50.588;9.504;2023-05-16T15:01:58;18.60;80.90
44513;DHT22;30219;50.588;9.504;2023-05-16T15:04:25;19.00;79.60
44513;DHT22;30219;50.588;9.504;2023-05-16T15:06:51;19.00;79.40
44513;DHT22;30219;50.588;9.504;2023-05-16T15:09:16;19.20;79.80
44513;DHT22;30219;50.588;9.504;2023-05-16T15:11:43;19.30;78.30
44513;DHT22;30219;50.588;9.504;2023-05-16T15:14:08;19.30;78.80
44513;DHT22;30219;50.588;9.504;2023-05-16T15:16:34;19.20;78.80
44513;DHT22;30219;50.588;9.504;2023-05-16T15:18:59;18.70;78.30
44513;DHT22;30219;50.588;9.504;2023-05-16T15:21:25;18.40;78.40
44513;DHT22;30219;50.588;9.504;2023-05-16T15:23:51;18.30;78.40
44513;DHT22;30219;50.588;9.504;2023-05-16T15:26:17;18.30;78.90
44513;DHT22;30219;50.588;9.504;2023-05-16T15:28:43;18.40;79.60
44513;DHT22;30219;50.588;9.504;2023-05-16T15:31:08;18.60;80.50
44513;DHT22;30219;50.588;9.504;2023-05-16T15:33:34;18.70;78.40
44513;DHT22;30219;50.588;9.504;2023-05-16T15:36:00;18.70;78.50
44513;DHT22;30219;50.588;9.504;2023-05-16T15:38:25;18.70;78.70
44513;DHT22;30219;50.588;9.504;2023-05-16T15:40:51;18.40;79.20
44513;DHT22;30219;50.588;9.504;2023-05-16T15:43:16;18.10;78.50
44513;DHT22;30219;50.588;9.504;2023-05-16T15:45:42;18.20;79.10
44513;DHT22;30219;50.588;9.504;2023-05-16T15:48:08;18.30;78.40
44513;DHT22;30219;50.588;9.504;2023-05-16T15:50:33;18.30;78.70
44513;DHT22;30219;50.588;9.504;2023-05-16T15:52:59;18.30;79.00
44513;DHT22;30219;50.588;9.504;2023-05-16T15:55:24;18.40;79.00
44513;DHT22;30219;50.588;9.504;2023-05-16T15:57:50;18.40;78.20
44513;DHT22;30219;50.588;9.504;2023-05-16T16:00:15;17.90;76.90
44513;DHT22;30219;50.588;9.504;2023-05-16T16:02:41;17.50;77.90
44513;DHT22;30219;50.588;9.504;2023-05-16T16:05:09;17.70;79.60
44513;DHT22;30219;50.588;9.504;2023-05-16T16:07:34;18.00;80.00
44513;DHT22;30219;50.588;9.504;2023-05-16T16:10:00;18.20;79.20